Readfield, Maine
Current Conditions -  °F | °C
As of 8:53 PM on Monday 20 Oct 2014 (Local Time) from KAUG Reporting Station
Few Clouds Few Clouds  
Wind Chill: 44°   Ceiling: Unl
Heat Index: 44°   Visibility: 10mi
Dew Point: 30°   Wind: 0mph
Humidity: 58%   Direction: NA
Pressure: 29.97"   Gusts: NA
Location:  44.39°N, 69.97°W
Report Text: KAUG 210053Z AUTO 00000KT 10SM FEW075 07/M01 A2997 RMK AO2 SLP150 T00671011
Loading
Personal Weather Stations






























Interactive Weather Map
Tropical Storm Tracking
New forecast layout! Learn more

10-Day Weather Forecast

Advertisements
Track Severe Weather on mobile